Time;durP1;ratioP1;P1;durP2;ratioP2;P2;SDS_P1;SDS_P2;PMS_P1;PMS_P2;Temp;Humidity;BMP_temperature;BMP_pressure;BME280_temperature;BME280_humidity;BME280_pressure;Samples;Min_cycle;Max_cycle;Signal;HPM_P1;HPM_P2
2021/12/12 00:02:06;;;;;;;;;;;3.50;99.90;;;;;;5054871;28;19921;-79
2021/12/12 00:04:35;;;;;;;;;;;3.50;99.90;;;;;;5055067;28;19921;-79
2021/12/12 00:07:03;;;;;;;;;;;3.50;99.90;;;;;;5036711;28;19921;-79
2021/12/12 00:09:37;;;;;;;;;;;3.50;99.90;;;;;;5054943;28;19921;-79
2021/12/12 00:12:08;;;;;;;;;;;3.50;99.90;;;;;;5054575;28;19931;-79
2021/12/12 00:14:35;;;;;;;;;;;3.50;99.90;;;;;;5036781;28;19927;-79
2021/12/12 00:17:02;;;;;;;;;;;3.70;99.90;;;;;;5054433;28;19928;-79
2021/12/12 00:19:28;;;;;;;;;;;3.60;99.90;;;;;;5019819;28;19932;-79
2021/12/12 00:21:55;;;;;;;;;;;3.50;99.90;;;;;;5053580;28;20006;-79
2021/12/12 00:24:21;;;;;;;;;;;3.80;99.90;;;;;;5036260;28;19921;-79
2021/12/12 00:26:49;;;;;;;;;;;3.60;99.90;;;;;;5054395;28;20309;-79
2021/12/12 00:29:15;;;;;;;;;;;3.50;99.90;;;;;;5054412;28;20011;-79
2021/12/12 00:31:41;;;;;;;;;;;4.40;99.90;;;;;;5054556;28;19921;-79
2021/12/12 00:34:07;;;;;;;;;;;4.30;99.90;;;;;;5054368;28;19974;-79
2021/12/12 00:36:34;;;;;;;;;;;3.60;99.90;;;;;;5054376;28;19924;-79
2021/12/12 00:39:03;;;;;;;;;;;3.70;99.90;;;;;;5054386;28;19960;-79
2021/12/12 00:41:37;;;;;;;;;;;3.70;99.90;;;;;;5054135;28;19975;-79
2021/12/12 00:44:02;;;;;;;;;;;3.70;99.90;;;;;;5054093;28;19924;-79
2021/12/12 00:46:28;;;;;;;;;;;3.70;99.90;;;;;;5053918;28;19974;-79
2021/12/12 00:48:54;;;;;;;;;;;3.80;99.90;;;;;;5036078;28;20272;-79
2021/12/12 00:51:22;;;;;;;;;;;3.70;99.90;;;;;;5054185;28;19921;-79
2021/12/12 00:53:48;;;;;;;;;;;3.70;99.90;;;;;;5054145;28;20007;-79
2021/12/12 00:56:14;;;;;;;;;;;3.70;99.90;;;;;;5054200;28;19964;-79
2021/12/12 00:58:39;;;;;;;;;;;3.80;99.90;;;;;;5054026;28;19920;-79
2021/12/12 01:01:13;;;;;;;;;;;4.20;99.90;;;;;;5053870;28;19916;-79
2021/12/12 01:03:41;;;;;;;;;;;3.70;99.90;;;;;;5035744;28;19920;-79
2021/12/12 01:06:07;;;;;;;;;;;3.80;99.90;;;;;;5054083;28;19924;-79
2021/12/12 01:08:34;;;;;;;;;;;3.80;99.90;;;;;;5036161;28;20363;-79
2021/12/12 01:11:03;;;;;;;;;;;3.80;99.90;;;;;;5019686;28;20402;-79
2021/12/12 01:13:29;;;;;;;;;;;3.80;99.90;;;;;;5036057;28;20306;-79
2021/12/12 01:15:57;;;;;;;;;;;3.80;99.90;;;;;;5053816;28;20015;-79
2021/12/12 01:18:29;;;;;;;;;;;3.80;99.90;;;;;;5036002;28;19967;-79
2021/12/12 01:21:03;;;;;;;;;;;3.90;99.90;;;;;;5054232;28;19921;-78
2021/12/12 01:23:31;;;;;;;;;;;3.90;99.90;;;;;;5053730;28;19920;-78
2021/12/12 01:25:57;;;;;;;;;;;4.50;99.90;;;;;;5035940;28;19929;-78
2021/12/12 01:28:24;;;;;;;;;;;3.90;99.90;;;;;;5035571;28;19924;-79
2021/12/12 01:30:52;;;;;;;;;;;3.90;99.90;;;;;;5053791;28;19927;-78
2021/12/12 01:33:32;;;;;;;;;;;3.90;99.90;;;;;;5038366;28;19955;-79
2021/12/12 01:35:58;;;;;;;;;;;4.00;99.90;;;;;;5057720;28;20303;-78
2021/12/12 01:41:07;;;;;;;;;;;4.00;99.90;;;;;;5057358;28;19917;-78
2021/12/12 01:43:39;;;;;;;;;;;4.00;99.90;;;;;;5057593;28;19970;-78
2021/12/12 01:46:07;;;;;;;;;;;4.00;99.90;;;;;;5039521;28;20295;-79
2021/12/12 01:48:36;;;;;;;;;;;4.00;99.90;;;;;;5039228;28;19925;-78
2021/12/12 01:51:04;;;;;;;;;;;4.10;99.90;;;;;;5040224;28;19994;-79
2021/12/12 01:53:30;;;;;;;;;;;4.10;99.90;;;;;;5056908;28;20013;-78
2021/12/12 01:55:58;;;;;;;;;;;4.10;99.90;;;;;;5057308;28;20359;-79
2021/12/12 01:58:26;;;;;;;;;;;4.10;99.90;;;;;;5038977;28;19966;-78
2021/12/12 02:00:57;;;;;;;;;;;4.10;99.90;;;;;;5057057;28;20007;-78
2021/12/12 02:03:24;;;;;;;;;;;4.10;99.90;;;;;;5039134;28;19924;-79
2021/12/12 02:05:50;;;;;;;;;;;4.20;99.90;;;;;;5056909;28;19921;-78
2021/12/12 02:08:17;;;;;;;;;;;4.20;99.90;;;;;;5056701;28;19975;-79
2021/12/12 02:10:55;;;;;;;;;;;4.30;99.90;;;;;;5057079;28;20264;-79
2021/12/12 02:13:22;;;;;;;;;;;4.30;99.90;;;;;;5056894;28;19975;-78
2021/12/12 02:15:49;;;;;;;;;;;4.30;99.90;;;;;;5038858;28;19920;-79
2021/12/12 02:18:16;;;;;;;;;;;4.30;99.90;;;;;;5056622;28;20477;-79
2021/12/12 02:21:04;;;;;;;;;;;4.30;99.90;;;;;;5056686;28;19948;-79
2021/12/12 02:23:50;;;;;;;;;;;4.30;99.90;;;;;;5038730;28;20003;-79
2021/12/12 02:37:31;;;;;;;;;;;4.80;99.90;;;;;;5056295;28;19920;-79
2021/12/12 02:39:57;;;;;;;;;;;4.40;99.90;;;;;;5056547;28;19922;-79
2021/12/12 02:42:23;;;;;;;;;;;4.40;99.90;;;;;;5056420;28;20383;-79
2021/12/12 02:44:52;;;;;;;;;;;4.40;99.90;;;;;;5055388;28;20290;-79
2021/12/12 02:47:20;;;;;;;;;;;4.40;99.90;;;;;;5038395;28;19924;-79
2021/12/12 02:52:20;;;;;;;;;;;4.40;99.90;;;;;;5055768;28;19943;-79
2021/12/12 02:54:45;;;;;;;;;;;4.50;99.90;;;;;;5056204;28;19921;-79
2021/12/12 02:57:12;;;;;;;;;;;4.50;99.90;;;;;;5056727;28;20336;-79
2021/12/12 02:59:39;;;;;;;;;;;4.50;99.90;;;;;;5038359;28;19920;-79
2021/12/12 03:02:07;;;;;;;;;;;5.30;99.90;;;;;;5056379;28;20283;-79
2021/12/12 03:04:33;;;;;;;;;;;4.50;99.90;;;;;;5056227;28;19947;-79
2021/12/12 03:06:59;;;;;;;;;;;4.50;99.90;;;;;;5055954;28;19920;-79
2021/12/12 03:09:30;;;;;;;;;;;4.50;99.90;;;;;;5038056;28;19928;-79
2021/12/12 03:11:58;;;;;;;;;;;4.50;99.90;;;;;;5056194;28;20322;-79
2021/12/12 03:14:24;;;;;;;;;;;4.60;99.90;;;;;;5056222;28;20008;-79
2021/12/12 03:16:49;;;;;;;;;;;4.60;99.90;;;;;;5038126;28;20015;-79
2021/12/12 03:19:19;;;;;;;;;;;4.60;99.90;;;;;;5055817;28;20025;-79
2021/12/12 03:21:46;;;;;;;;;;;4.60;99.90;;;;;;5055706;28;19920;-79
2021/12/12 03:24:14;;;;;;;;;;;4.60;99.90;;;;;;5055786;28;19924;-79
2021/12/12 03:26:41;;;;;;;;;;;4.60;99.90;;;;;;5038169;28;19987;-79
2021/12/12 03:29:07;;;;;;;;;;;4.60;99.90;;;;;;5055721;28;19921;-79
2021/12/12 03:31:38;;;;;;;;;;;4.70;99.90;;;;;;5037483;28;19962;-79
2021/12/12 03:34:08;;;;;;;;;;;4.70;99.90;;;;;;5055484;28;19921;-79
2021/12/12 03:36:34;;;;;;;;;;;4.70;99.90;;;;;;5037866;28;19920;-79
2021/12/12 03:39:01;;;;;;;;;;;4.70;99.90;;;;;;5055418;28;19920;-79
2021/12/12 03:41:29;;;;;;;;;;;4.80;99.90;;;;;;5056079;28;19920;-80
2021/12/12 03:43:59;;;;;;;;;;;4.80;99.90;;;;;;5037684;28;19928;-79
2021/12/12 03:46:24;;;;;;;;;;;4.80;99.90;;;;;;5055429;28;20290;-79
2021/12/12 03:48:52;;;;;;;;;;;4.80;99.90;;;;;;5055221;28;19920;-78
2021/12/12 03:51:19;;;;;;;;;;;4.80;99.90;;;;;;5055118;28;19920;-79
2021/12/12 03:53:45;;;;;;;;;;;4.90;99.90;;;;;;5054737;28;19920;-79
2021/12/12 03:56:11;;;;;;;;;;;4.80;99.90;;;;;;5054650;28;20496;-79
2021/12/12 03:58:38;;;;;;;;;;;4.80;99.90;;;;;;5055167;28;20283;-79
2021/12/12 04:01:09;;;;;;;;;;;4.80;99.90;;;;;;5055079;28;19924;-79
2021/12/12 04:03:35;;;;;;;;;;;5.60;99.90;;;;;;5055611;28;19927;-79
2021/12/12 04:06:04;;;;;;;;;;;4.80;99.90;;;;;;5054999;28;19995;-78
2021/12/12 04:08:31;;;;;;;;;;;4.90;99.90;;;;;;5054978;28;20066;-78
2021/12/12 04:10:57;;;;;;;;;;;4.90;99.90;;;;;;5037130;28;19920;-79
2021/12/12 04:13:23;;;;;;;;;;;4.90;99.90;;;;;;5055127;28;19924;-79
2021/12/12 04:15:52;;;;;;;;;;;5.00;99.90;;;;;;5054660;28;20314;-79
2021/12/12 04:18:21;;;;;;;;;;;4.90;99.90;;;;;;5036938;28;19921;-79
2021/12/12 04:20:47;;;;;;;;;;;4.90;99.90;;;;;;5055210;28;19925;-79
2021/12/12 04:23:14;;;;;;;;;;;5.50;99.90;;;;;;5054648;28;20371;-78
2021/12/12 04:25:40;;;;;;;;;;;5.10;99.90;;;;;;5037242;28;19928;-79
2021/12/12 04:28:06;;;;;;;;;;;5.00;99.90;;;;;;5054721;28;19921;-80
2021/12/12 04:30:31;;;;;;;;;;;5.00;99.90;;;;;;5054574;28;20287;-79
2021/12/12 04:32:57;;;;;;;;;;;5.00;99.90;;;;;;5054895;28;19921;-79
2021/12/12 04:35:25;;;;;;;;;;;5.00;99.90;;;;;;5054248;28;19920;-79
2021/12/12 04:37:51;;;;;;;;;;;5.00;99.90;;;;;;5036917;28;19924;-79
2021/12/12 04:40:18;;;;;;;;;;;5.00;99.90;;;;;;5054741;28;20363;-79
2021/12/12 04:42:44;;;;;;;;;;;5.10;99.90;;;;;;5054453;28;19921;-79
2021/12/12 04:45:26;;;;;;;;;;;5.60;99.90;;;;;;5036375;28;19975;-79
2021/12/12 04:51:09;;;;;;;;;;;5.10;99.90;;;;;;5054524;28;19924;-79
2021/12/12 04:53:56;;;;;;;;;;;5.10;99.90;;;;;;5054230;28;19975;-79
2021/12/12 04:56:26;;;;;;;;;;;5.10;99.90;;;;;;5035929;28;19947;-79
2021/12/12 04:58:52;;;;;;;;;;;5.10;99.90;;;;;;5054791;28;19951;-79
2021/12/12 05:01:43;;;;;;;;;;;5.30;99.90;;;;;;5054416;28;19924;-79
2021/12/12 05:04:23;;;;;;;;;;;5.20;99.90;;;;;;4973253;28;19981;-79
2021/12/12 05:07:04;;;;;;;;;;;5.20;99.90;;;;;;4957499;28;19922;-80
2021/12/12 05:09:33;;;;;;;;;;;5.20;99.90;;;;;;4961412;28;19969;-79
2021/12/12 05:12:02;;;;;;;;;;;5.20;99.90;;;;;;4977898;28;19921;-79
2021/12/12 05:14:30;;;;;;;;;;;5.20;99.90;;;;;;4978220;28;19922;-79
2021/12/12 05:17:05;;;;;;;;;;;5.20;99.90;;;;;;4980050;28;20321;-79
2021/12/12 05:19:31;;;;;;;;;;;5.20;99.90;;;;;;4946384;28;19922;-79
2021/12/12 05:22:01;;;;;;;;;;;5.20;99.90;;;;;;4961775;28;19977;-79
2021/12/12 05:24:27;;;;;;;;;;;5.20;99.90;;;;;;4961626;28;19929;-80
2021/12/12 05:26:56;;;;;;;;;;;5.20;99.90;;;;;;4961004;28;19926;-79
2021/12/12 05:29:36;;;;;;;;;;;5.20;99.90;;;;;;4961325;28;19930;-79
2021/12/12 05:32:04;;;;;;;;;;;5.30;99.90;;;;;;4977041;28;19922;-79
2021/12/12 05:34:32;;;;;;;;;;;5.20;99.90;;;;;;4977231;28;19977;-79
2021/12/12 05:36:58;;;;;;;;;;;5.30;99.90;;;;;;4977694;28;19922;-79
2021/12/12 05:39:24;;;;;;;;;;;6.00;99.90;;;;;;4977453;28;20500;-79
2021/12/12 05:41:51;;;;;;;;;;;5.30;99.90;;;;;;5048036;28;19975;-79
2021/12/12 05:44:17;;;;;;;;;;;5.30;99.90;;;;;;5058004;28;19956;-79
2021/12/12 05:46:42;;;;;;;;;;;5.30;99.90;;;;;;5057961;28;20429;-79
2021/12/12 05:49:09;;;;;;;;;;;5.70;99.90;;;;;;5058194;28;19924;-79
2021/12/12 05:51:35;;;;;;;;;;;5.30;99.90;;;;;;5057886;28;20420;-79
2021/12/12 05:54:01;;;;;;;;;;;5.60;99.90;;;;;;5039785;28;19920;-79
2021/12/12 05:56:28;;;;;;;;;;;5.30;99.90;;;;;;5039876;28;19927;-79
2021/12/12 05:58:55;;;;;;;;;;;5.30;99.90;;;;;;5057731;28;19927;-79
2021/12/12 06:01:20;;;;;;;;;;;5.40;99.90;;;;;;5057404;28;20363;-79
2021/12/12 06:03:47;;;;;;;;;;;5.30;99.90;;;;;;5039841;28;19920;-79
2021/12/12 06:06:15;;;;;;;;;;;5.40;99.90;;;;;;5057610;28;20341;-79
2021/12/12 06:08:42;;;;;;;;;;;5.60;99.90;;;;;;5057923;28;19921;-79
2021/12/12 06:11:08;;;;;;;;;;;5.30;99.90;;;;;;5057588;28;19920;-79
2021/12/12 06:13:35;;;;;;;;;;;5.30;99.90;;;;;;5056897;28;20271;-79
2021/12/12 06:16:01;;;;;;;;;;;5.30;99.90;;;;;;5057310;28;19983;-79
2021/12/12 06:18:27;;;;;;;;;;;5.40;99.90;;;;;;5056982;28;20337;-79
2021/12/12 06:20:54;;;;;;;;;;;6.20;99.90;;;;;;5057246;28;19924;-79
2021/12/12 06:23:20;;;;;;;;;;;5.40;99.90;;;;;;5056938;28;19921;-79
2021/12/12 06:25:47;;;;;;;;;;;5.40;99.90;;;;;;5039916;28;19944;-79
2021/12/12 06:28:15;;;;;;;;;;;6.10;99.90;;;;;;5039348;28;20287;-79
2021/12/12 06:30:41;;;;;;;;;;;6.00;99.90;;;;;;5038524;28;19928;-79
2021/12/12 06:33:08;;;;;;;;;;;5.40;99.90;;;;;;5056666;28;19928;-79
2021/12/12 06:35:34;;;;;;;;;;;5.40;99.90;;;;;;5038347;28;20367;-79
2021/12/12 06:38:01;;;;;;;;;;;5.40;99.90;;;;;;5056852;28;19982;-79
2021/12/12 06:40:27;;;;;;;;;;;5.50;99.90;;;;;;5056643;28;19921;-79
2021/12/12 06:42:54;;;;;;;;;;;5.50;99.90;;;;;;5056485;28;19932;-79
2021/12/12 06:45:20;;;;;;;;;;;5.60;99.90;;;;;;5038367;28;19921;-79
2021/12/12 06:47:45;;;;;;;;;;;6.10;99.90;;;;;;5038638;28;19970;-79
2021/12/12 06:50:12;;;;;;;;;;;5.50;99.90;;;;;;5056493;28;19924;-79
2021/12/12 06:52:38;;;;;;;;;;;5.90;99.90;;;;;;5056190;28;20272;-79
2021/12/12 06:55:06;;;;;;;;;;;6.00;99.90;;;;;;5056122;28;19946;-79
2021/12/12 06:57:32;;;;;;;;;;;5.60;99.90;;;;;;5039165;28;19921;-79
2021/12/12 06:59:57;;;;;;;;;;;5.60;99.90;;;;;;5038877;28;19923;-79
2021/12/12 07:02:23;;;;;;;;;;;5.60;99.90;;;;;;5022117;28;20017;-79
2021/12/12 07:04:49;;;;;;;;;;;5.60;99.90;;;;;;5056760;28;19920;-79
2021/12/12 07:07:15;;;;;;;;;;;5.70;99.90;;;;;;5056336;28;20485;-79
2021/12/12 07:09:42;;;;;;;;;;;5.70;99.90;;;;;;5056121;28;19921;-79
2021/12/12 07:12:09;;;;;;;;;;;5.80;99.90;;;;;;5056374;28;19923;-79
2021/12/12 07:14:35;;;;;;;;;;;5.80;99.90;;;;;;5055942;28;20375;-79
2021/12/12 07:17:01;;;;;;;;;;;5.80;99.90;;;;;;5056290;28;19966;-79
2021/12/12 07:19:27;;;;;;;;;;;5.90;99.90;;;;;;5055908;28;19946;-79
2021/12/12 07:21:52;;;;;;;;;;;5.50;99.90;;;;;;5038614;28;20346;-79
2021/12/12 07:24:18;;;;;;;;;;;5.90;99.90;;;;;;5056832;28;19928;-79
2021/12/12 07:26:44;;;;;;;;;;;6.10;99.90;;;;;;5055979;28;20314;-79
2021/12/12 07:29:10;;;;;;;;;;;6.00;99.90;;;;;;5055903;28;19920;-79
2021/12/12 07:31:37;;;;;;;;;;;6.40;99.90;;;;;;5037328;28;19920;-79
2021/12/12 07:34:04;;;;;;;;;;;6.60;99.90;;;;;;5037705;28;19924;-79
2021/12/12 07:36:31;;;;;;;;;;;6.10;99.90;;;;;;5055356;28;19921;-79
2021/12/12 07:38:59;;;;;;;;;;;6.20;99.90;;;;;;5055854;28;19966;-79
2021/12/12 07:41:26;;;;;;;;;;;6.60;99.90;;;;;;5055620;28;20474;-79
2021/12/12 07:43:52;;;;;;;;;;;6.30;99.90;;;;;;5055668;28;19974;-79
2021/12/12 07:46:18;;;;;;;;;;;6.60;99.90;;;;;;5055368;28;20003;-80
2021/12/12 07:48:45;;;;;;;;;;;6.30;99.90;;;;;;5055458;28;20025;-79
2021/12/12 07:51:10;;;;;;;;;;;6.40;99.90;;;;;;5055300;28;19920;-79
2021/12/12 07:53:36;;;;;;;;;;;6.90;99.90;;;;;;5054900;28;20287;-79
2021/12/12 07:56:02;;;;;;;;;;;6.50;99.90;;;;;;5037863;28;19976;-79
2021/12/12 07:58:27;;;;;;;;;;;6.60;99.90;;;;;;5037217;28;19943;-79
2021/12/12 08:00:55;;;;;;;;;;;6.70;99.90;;;;;;5055288;28;19917;-79
2021/12/12 08:03:22;;;;;;;;;;;6.60;99.90;;;;;;5055049;28;19967;-79
2021/12/12 08:05:48;;;;;;;;;;;6.80;99.90;;;;;;5036841;28;19927;-79
2021/12/12 08:08:14;;;;;;;;;;;6.70;99.90;;;;;;5036734;28;19916;-79
2021/12/12 08:10:41;;;;;;;;;;;6.70;99.90;;;;;;5037277;28;20319;-79
2021/12/12 08:13:08;;;;;;;;;;;7.60;99.90;;;;;;5054863;28;20003;-79
2021/12/12 08:15:34;;;;;;;;;;;7.60;99.90;;;;;;5036907;28;19929;-79
2021/12/12 08:18:00;;;;;;;;;;;6.90;99.90;;;;;;5054831;28;19947;-79
2021/12/12 08:20:27;;;;;;;;;;;6.50;99.90;;;;;;5037738;28;19966;-79
2021/12/12 08:22:53;;;;;;;;;;;6.90;99.90;;;;;;5055558;28;19924;-79
2021/12/12 08:25:19;;;;;;;;;;;7.20;99.90;;;;;;5055033;28;20383;-79
2021/12/12 08:27:45;;;;;;;;;;;6.90;99.90;;;;;;5054818;28;19921;-79
2021/12/12 08:30:11;;;;;;;;;;;7.30;99.90;;;;;;5054831;28;19920;-79
2021/12/12 08:32:37;;;;;;;;;;;6.90;99.90;;;;;;5054590;28;20298;-79
2021/12/12 08:35:04;;;;;;;;;;;7.40;99.90;;;;;;5054350;28;19921;-79
2021/12/12 08:37:30;;;;;;;;;;;7.00;99.90;;;;;;5054697;28;19990;-79
2021/12/12 08:39:56;;;;;;;;;;;7.00;99.90;;;;;;5054536;28;19921;-79
2021/12/12 08:42:26;;;;;;;;;;;7.10;99.90;;;;;;5035952;28;19924;-79
2021/12/12 08:44:53;;;;;;;;;;;7.10;99.90;;;;;;5054474;28;19927;-79
2021/12/12 08:47:19;;;;;;;;;;;7.10;99.90;;;;;;5054239;28;19956;-79
2021/12/12 08:49:45;;;;;;;;;;;7.10;99.90;;;;;;5054385;28;19944;-79
2021/12/12 08:52:16;;;;;;;;;;;7.20;99.90;;;;;;5036070;28;20363;-79
2021/12/12 08:54:43;;;;;;;;;;;7.20;99.90;;;;;;5054181;28;19921;-79
2021/12/12 08:57:33;;;;;;;;;;;7.20;99.90;;;;;;5054252;28;20419;-79
2021/12/12 09:00:00;;;;;;;;;;;7.20;99.90;;;;;;5054371;28;19920;-79
2021/12/12 09:02:26;;;;;;;;;;;7.20;99.90;;;;;;5054694;28;19935;-79
2021/12/12 09:04:57;;;;;;;;;;;7.60;99.90;;;;;;5054341;28;19928;-79
2021/12/12 09:07:32;;;;;;;;;;;7.30;99.90;;;;;;5036515;28;19947;-79
2021/12/12 09:10:13;;;;;;;;;;;7.30;99.90;;;;;;5054385;28;19924;-79
2021/12/12 09:12:41;;;;;;;;;;;7.40;99.90;;;;;;5054294;28;19920;-79
2021/12/12 09:15:23;;;;;;;;;;;7.40;99.90;;;;;;5054026;28;20004;-79
2021/12/12 09:17:53;;;;;;;;;;;7.40;99.90;;;;;;5054505;28;20003;-79
2021/12/12 09:20:33;;;;;;;;;;;7.90;99.90;;;;;;5054175;28;20366;-79
2021/12/12 09:23:02;;;;;;;;;;;7.40;99.90;;;;;;5036351;28;19920;-79
2021/12/12 09:25:34;;;;;;;;;;;7.50;99.90;;;;;;5036255;28;20003;-79
2021/12/12 09:28:12;;;;;;;;;;;7.50;99.90;;;;;;5057348;28;20015;-79
2021/12/12 09:30:38;;;;;;;;;;;7.50;99.90;;;;;;5054322;28;19943;-79
2021/12/12 09:33:12;;;;;;;;;;;7.50;99.90;;;;;;5054090;28;19921;-79
2021/12/12 09:35:53;;;;;;;;;;;7.50;99.90;;;;;;5053856;28;20011;-79
2021/12/12 09:38:25;;;;;;;;;;;7.60;99.90;;;;;;5053920;28;20007;-79
2021/12/12 09:41:09;;;;;;;;;;;7.60;99.90;;;;;;5054222;28;20371;-79
2021/12/12 09:43:50;;;;;;;;;;;7.60;99.90;;;;;;5054420;28;19928;-79
2021/12/12 09:46:56;;;;;;;;;;;7.60;99.90;;;;;;5054154;28;19921;-79
2021/12/12 09:52:09;;;;;;;;;;;7.70;99.90;;;;;;5035784;28;19917;-79
2021/12/12 09:54:53;;;;;;;;;;;7.70;99.90;;;;;;5056102;28;19975;-79
2021/12/12 09:57:22;;;;;;;;;;;7.70;99.90;;;;;;5057450;28;19943;-79
2021/12/12 09:59:48;;;;;;;;;;;7.70;99.90;;;;;;5022782;28;19920;-79
2021/12/12 10:02:21;;;;;;;;;;;7.90;99.90;;;;;;5057461;28;20023;-79
2021/12/12 10:05:04;;;;;;;;;;;7.80;99.90;;;;;;5057215;28;19927;-79
2021/12/12 10:07:35;;;;;;;;;;;7.80;99.90;;;;;;5057280;28;19925;-79
2021/12/12 10:10:05;;;;;;;;;;;7.90;99.90;;;;;;5039580;28;20287;-79
2021/12/12 10:12:33;;;;;;;;;;;7.90;99.90;;;;;;5039243;28;19928;-79
2021/12/12 10:14:58;;;;;;;;;;;8.30;99.90;;;;;;5039330;28;19972;-79
2021/12/12 10:17:36;;;;;;;;;;;7.90;99.90;;;;;;5056888;28;20038;-79
2021/12/12 10:20:05;;;;;;;;;;;7.90;99.90;;;;;;5039150;28;19987;-79
2021/12/12 10:22:50;;;;;;;;;;;8.00;99.90;;;;;;5022860;28;19920;-79
2021/12/12 10:25:17;;;;;;;;;;;8.00;99.90;;;;;;5057089;28;20011;-79
2021/12/12 10:28:02;;;;;;;;;;;8.20;99.90;;;;;;5056632;28;20307;-79
2021/12/12 10:30:30;;;;;;;;;;;8.10;99.90;;;;;;5039306;28;20012;-79
2021/12/12 10:33:12;;;;;;;;;;;8.20;99.90;;;;;;5057089;28;19921;-79
2021/12/12 10:36:13;;;;;;;;;;;8.20;99.90;;;;;;5056658;28;20026;-79
2021/12/12 10:38:58;;;;;;;;;;;8.20;99.90;;;;;;4975744;28;20025;-79
2021/12/12 10:41:31;;;;;;;;;;;8.10;99.90;;;;;;4975726;28;20094;-79
2021/12/12 10:44:02;;;;;;;;;;;8.20;99.90;;;;;;4959396;28;19924;-79
2021/12/12 10:46:38;;;;;;;;;;;8.20;99.90;;;;;;4975903;28;19930;-79
2021/12/12 10:49:04;;;;;;;;;;;8.20;99.90;;;;;;4959842;28;20273;-79
2021/12/12 10:51:34;;;;;;;;;;;8.20;99.90;;;;;;4976136;28;19929;-79
2021/12/12 10:54:02;;;;;;;;;;;8.30;99.90;;;;;;4975825;28;20453;-80
2021/12/12 10:56:37;;;;;;;;;;;8.20;99.90;;;;;;4975642;28;20394;-79
2021/12/12 10:59:04;;;;;;;;;;;8.20;99.90;;;;;;4975514;28;19932;-80
2021/12/12 11:01:31;;;;;;;;;;;8.20;99.90;;;;;;4975843;28;19922;-79
2021/12/12 11:04:16;;;;;;;;;;;8.20;99.90;;;;;;4975587;28;20273;-79
2021/12/12 11:06:43;;;;;;;;;;;8.30;99.90;;;;;;4974359;28;20369;-79
2021/12/12 11:09:14;;;;;;;;;;;8.60;99.90;;;;;;4959683;28;19922;-79
2021/12/12 11:11:42;;;;;;;;;;;8.30;99.90;;;;;;4983993;28;20302;-79
2021/12/12 11:14:29;;;;;;;;;;;8.30;99.90;;;;;;5056345;28;19964;-79
2021/12/12 11:16:56;;;;;;;;;;;8.40;99.90;;;;;;5055953;28;20268;-79
2021/12/12 11:19:40;;;;;;;;;;;8.40;99.90;;;;;;5056250;28;20286;-79
2021/12/12 11:22:12;;;;;;;;;;;8.40;99.90;;;;;;5055886;28;19927;-79
2021/12/12 11:24:40;;;;;;;;;;;8.40;99.90;;;;;;5055542;28;20349;-79
2021/12/12 11:27:08;;;;;;;;;;;8.40;99.90;;;;;;5055990;28;19925;-79
2021/12/12 11:29:36;;;;;;;;;;;8.40;99.90;;;;;;5038846;28;19928;-79
2021/12/12 11:32:04;;;;;;;;;;;8.70;99.90;;;;;;5055740;28;19921;-79
2021/12/12 11:34:30;;;;;;;;;;;8.50;99.90;;;;;;5056257;28;20274;-79
2021/12/12 11:37:14;;;;;;;;;;;8.50;99.90;;;;;;5056323;28;19927;-79
2021/12/12 11:39:50;;;;;;;;;;;8.60;99.90;;;;;;5038576;28;19921;-79
2021/12/12 11:42:36;;;;;;;;;;;8.60;99.90;;;;;;5037585;28;20079;-79
2021/12/12 11:45:10;;;;;;;;;;;8.70;99.90;;;;;;5055207;28;19927;-79
2021/12/12 11:47:54;;;;;;;;;;;8.60;99.90;;;;;;5037485;28;19920;-79
2021/12/12 11:50:29;;;;;;;;;;;8.60;99.90;;;;;;5055366;28;19920;-79
2021/12/12 11:52:59;;;;;;;;;;;8.70;99.90;;;;;;5055119;28;20367;-79
2021/12/12 11:55:33;;;;;;;;;;;8.60;99.90;;;;;;5037835;28;19920;-79
2021/12/12 11:58:13;;;;;;;;;;;8.70;99.90;;;;;;5055529;28;19927;-79
2021/12/12 12:00:41;;;;;;;;;;;8.70;99.90;;;;;;5054993;28;19931;-79
2021/12/12 12:03:13;;;;;;;;;;;8.90;99.90;;;;;;5037578;28;19952;-79
2021/12/12 12:05:47;;;;;;;;;;;8.80;99.90;;;;;;5055384;28;19927;-79
2021/12/12 12:08:26;;;;;;;;;;;8.70;99.90;;;;;;5038046;28;19947;-79
2021/12/12 12:11:11;;;;;;;;;;;8.80;99.90;;;;;;5055649;28;19920;-80
2021/12/12 12:13:48;;;;;;;;;;;8.80;99.90;;;;;;5037762;28;19975;-79
2021/12/12 12:16:20;;;;;;;;;;;8.80;99.90;;;;;;5056348;28;19920;-79
2021/12/12 12:18:54;;;;;;;;;;;8.80;99.90;;;;;;5021553;28;19924;-79
2021/12/12 12:21:30;;;;;;;;;;;8.90;99.90;;;;;;5056580;28;20359;-80
2021/12/12 12:26:52;;;;;;;;;;;8.90;99.90;;;;;;5055733;28;19923;-79
2021/12/12 12:29:27;;;;;;;;;;;9.00;99.90;;;;;;5056029;28;19921;-80
2021/12/12 12:32:11;;;;;;;;;;;9.00;99.90;;;;;;5019476;23;19928;-80
2021/12/12 12:34:40;;;;;;;;;;;9.00;99.90;;;;;;5001981;28;19952;-79
2021/12/12 12:37:11;;;;;;;;;;;9.00;99.90;;;;;;5017200;28;19921;-79
2021/12/12 12:40:03;;;;;;;;;;;9.00;99.90;;;;;;5034843;28;20390;-79
2021/12/12 12:42:54;;;;;;;;;;;9.00;99.90;;;;;;5016886;28;20015;-79
2021/12/12 12:45:32;;;;;;;;;;;9.00;99.90;;;;;;5000001;28;20360;-79
2021/12/12 12:48:12;;;;;;;;;;;9.10;99.90;;;;;;5034447;28;19928;-79
2021/12/12 12:50:56;;;;;;;;;;;9.10;99.90;;;;;;5016935;28;19921;-79
2021/12/12 12:53:40;;;;;;;;;;;9.10;99.90;;;;;;5034508;28;19932;-79
2021/12/12 12:56:23;;;;;;;;;;;9.20;99.90;;;;;;5034295;28;19921;-79
2021/12/12 12:59:07;;;;;;;;;;;9.20;99.90;;;;;;5035197;28;20355;-79
2021/12/12 13:01:33;;;;;;;;;;;9.20;99.90;;;;;;5034349;28;19932;-79
2021/12/12 13:04:22;;;;;;;;;;;9.30;99.90;;;;;;5034718;28;20356;-79
2021/12/12 13:07:01;;;;;;;;;;;9.20;99.90;;;;;;5034286;28;19921;-79
2021/12/12 13:09:31;;;;;;;;;;;9.20;99.90;;;;;;5034419;28;19921;-79
2021/12/12 13:12:09;;;;;;;;;;;9.30;99.90;;;;;;5034312;28;20391;-79
2021/12/12 13:14:44;;;;;;;;;;;9.30;99.90;;;;;;5016657;28;19983;-79
2021/12/12 13:17:14;;;;;;;;;;;9.30;99.90;;;;;;5034516;28;19925;-79
2021/12/12 13:19:55;;;;;;;;;;;9.30;99.90;;;;;;5016434;28;20300;-79
2021/12/12 13:22:34;;;;;;;;;;;9.40;99.90;;;;;;5033647;28;19935;-79
2021/12/12 13:25:19;;;;;;;;;;;9.40;99.90;;;;;;5034441;28;19999;-79
2021/12/12 13:28:15;;;;;;;;;;;9.40;99.90;;;;;;5035355;28;20359;-79
2021/12/12 13:30:58;;;;;;;;;;;9.30;99.90;;;;;;5037826;28;19921;-79
2021/12/12 13:33:33;;;;;;;;;;;9.30;99.90;;;;;;5020333;28;19925;-79
2021/12/12 13:36:18;;;;;;;;;;;9.30;99.90;;;;;;5020205;28;20016;-79
2021/12/12 13:39:05;;;;;;;;;;;9.30;99.90;;;;;;5003508;28;19925;-79
2021/12/12 13:41:31;;;;;;;;;;;9.30;99.90;;;;;;5010128;28;19924;-79
2021/12/12 13:44:08;;;;;;;;;;;9.40;99.90;;;;;;5038222;28;19921;-79
2021/12/12 13:46:34;;;;;;;;;;;9.30;99.90;;;;;;5004858;28;19920;-79
2021/12/12 13:49:02;;;;;;;;;;;9.40;99.90;;;;;;5004023;28;19921;-79
2021/12/12 13:51:28;;;;;;;;;;;9.30;99.90;;;;;;5038084;28;19921;-79
2021/12/12 13:54:21;;;;;;;;;;;9.20;99.90;;;;;;5037898;28;20346;-79
2021/12/12 13:57:05;;;;;;;;;;;9.20;99.90;;;;;;5031148;28;19921;-79
2021/12/12 13:59:38;;;;;;;;;;;9.20;99.90;;;;;;5037817;28;19921;-79
2021/12/12 14:02:06;;;;;;;;;;;9.10;99.90;;;;;;5037820;28;20383;-79
2021/12/12 14:04:50;;;;;;;;;;;9.70;99.90;;;;;;5037749;28;19967;-80
2021/12/12 14:07:18;;;;;;;;;;;9.10;99.90;;;;;;5019819;28;20430;-79
2021/12/12 14:09:44;;;;;;;;;;;9.10;99.90;;;;;;5037672;28;19921;-79
2021/12/12 14:12:10;;;;;;;;;;;9.10;99.90;;;;;;5037498;28;19921;-79
2021/12/12 14:14:40;;;;;;;;;;;9.10;99.90;;;;;;5019834;28;19921;-79
2021/12/12 14:17:13;;;;;;;;;;;9.10;99.90;;;;;;5037541;28;19944;-79
2021/12/12 14:19:48;;;;;;;;;;;9.10;99.90;;;;;;5037586;28;19928;-79
2021/12/12 14:22:16;;;;;;;;;;;9.10;99.90;;;;;;5003759;28;19921;-80
2021/12/12 14:24:42;;;;;;;;;;;9.10;99.90;;;;;;5037334;28;19925;-79
2021/12/12 14:27:09;;;;;;;;;;;9.10;99.90;;;;;;5037236;28;19921;-79
2021/12/12 14:29:36;;;;;;;;;;;9.10;99.90;;;;;;5002783;28;19921;-80
2021/12/12 14:32:07;;;;;;;;;;;9.20;99.90;;;;;;5018889;28;19921;-79
2021/12/12 14:34:35;;;;;;;;;;;9.20;99.90;;;;;;5019299;28;20004;-79
2021/12/12 14:37:06;;;;;;;;;;;9.10;99.90;;;;;;5019724;28;19921;-79
2021/12/12 14:39:33;;;;;;;;;;;9.20;99.90;;;;;;5018837;28;20323;-79
2021/12/12 14:42:03;;;;;;;;;;;9.20;99.90;;;;;;5036210;28;19921;-79
2021/12/12 14:44:35;;;;;;;;;;;9.30;99.90;;;;;;5036780;28;20394;-79
2021/12/12 14:47:21;;;;;;;;;;;9.70;99.90;;;;;;5036833;28;19928;-79
2021/12/12 14:49:53;;;;;;;;;;;9.20;99.90;;;;;;5036865;28;20019;-79
2021/12/12 14:52:21;;;;;;;;;;;9.30;99.90;;;;;;5037175;28;19921;-79
2021/12/12 14:54:49;;;;;;;;;;;9.70;99.90;;;;;;5036621;28;19921;-79
2021/12/12 14:57:17;;;;;;;;;;;9.30;99.90;;;;;;5036721;28;19921;-80
2021/12/12 14:59:44;;;;;;;;;;;9.30;99.90;;;;;;5019367;28;19952;-80
2021/12/12 15:02:16;;;;;;;;;;;9.50;99.90;;;;;;5018641;28;19921;-80
2021/12/12 15:04:50;;;;;;;;;;;9.30;99.90;;;;;;5018666;28;20272;-79
2021/12/12 15:07:17;;;;;;;;;;;9.30;99.90;;;;;;5018869;28;20007;-79
2021/12/12 15:09:48;;;;;;;;;;;9.30;99.90;;;;;;5019239;28;19924;-79
2021/12/12 15:12:16;;;;;;;;;;;9.30;99.90;;;;;;5037009;28;19967;-79
2021/12/12 15:14:51;;;;;;;;;;;9.30;99.90;;;;;;5036471;28;20016;-79
2021/12/12 15:17:18;;;;;;;;;;;9.30;99.90;;;;;;5036316;28;19987;-79